createdAt,value
2023-03-05T00:01:25.798Z,43.78
2023-03-05T00:03:55.527Z,45.17
2023-03-05T00:06:25.586Z,46.15
2023-03-05T00:08:53.563Z,47.05
2023-03-05T00:11:21.448Z,43.25
2023-03-05T00:13:52.357Z,46.83
2023-03-05T00:16:20.655Z,45.67
2023-03-05T00:18:48.791Z,45.35
2023-03-05T00:21:21.074Z,44.83
2023-03-05T00:23:50.762Z,43.20
2023-03-05T00:26:20.599Z,42.35
2023-03-05T00:28:52.628Z,44.63
2023-03-05T00:31:22.159Z,44.08
2023-03-05T00:33:54.453Z,44.20
2023-03-05T00:38:49.653Z,44.83
2023-03-05T00:41:17.259Z,46.00
2023-03-05T00:43:44.791Z,45.28
2023-03-05T00:46:12.383Z,41.67
2023-03-05T00:48:39.790Z,42.03
2023-03-05T00:51:07.446Z,42.90
2023-03-05T00:53:35.237Z,44.70
2023-03-05T00:56:02.825Z,43.28
2023-03-05T00:58:30.306Z,46.40
2023-03-05T01:01:00.025Z,46.78
2023-03-05T01:03:30.541Z,46.25
2023-03-05T01:05:59.158Z,52.67
2023-03-05T01:08:27.660Z,47.70
2023-03-05T01:10:55.368Z,50.50
2023-03-05T01:13:23.116Z,49.40
2023-03-05T01:15:51.149Z,48.88
2023-03-05T01:18:19.782Z,48.28
2023-03-05T01:20:48.268Z,47.33
2023-03-05T01:23:15.897Z,48.78
2023-03-05T01:25:43.350Z,51.38
2023-03-05T01:28:11.176Z,51.53
2023-03-05T01:30:38.627Z,51.95
2023-03-05T01:33:06.033Z,51.08
2023-03-05T01:35:33.513Z,53.08
2023-03-05T01:38:01.070Z,51.30
2023-03-05T01:40:30.422Z,52.78
2023-03-05T01:43:13.577Z,50.65
2023-03-05T01:46:19.306Z,52.17
2023-03-05T01:48:54.400Z,52.20
2023-03-05T01:51:27.008Z,50.33
2023-03-05T01:53:57.549Z,48.20
2023-03-05T01:56:27.353Z,49.08
2023-03-05T01:58:57.921Z,49.45
2023-03-05T02:01:25.468Z,47.05
2023-03-05T02:03:53.033Z,50.38
2023-03-05T02:06:20.512Z,51.13
2023-03-05T02:08:47.938Z,50.95
2023-03-05T02:11:15.417Z,48.97
2023-03-05T02:13:43.209Z,48.60
2023-03-05T02:16:10.958Z,50.95
2023-03-05T02:18:38.556Z,50.05
2023-03-05T02:21:06.715Z,48.45
2023-03-05T02:23:36.730Z,50.13
2023-03-05T02:26:10.057Z,48.83
2023-03-05T02:28:46.928Z,47.05
2023-03-05T02:31:18.135Z,46.63
2023-03-05T02:33:46.732Z,48.88
2023-03-05T02:36:15.228Z,49.28
2023-03-05T02:38:45.868Z,49.80
2023-03-05T02:41:14.123Z,50.10
2023-03-05T02:43:42.173Z,51.58
2023-03-05T02:46:09.832Z,49.22
2023-03-05T02:48:37.413Z,50.28
2023-03-05T02:51:06.889Z,51.50
2023-03-05T02:53:34.817Z,50.63
2023-03-05T02:56:03.085Z,50.40
2023-03-05T02:58:33.525Z,48.90
2023-03-05T03:01:01.030Z,49.70
2023-03-05T03:03:28.562Z,48.45
2023-03-05T03:05:56.137Z,46.42
2023-03-05T03:08:23.535Z,47.58
2023-03-05T03:10:50.944Z,48.53
2023-03-05T03:13:18.372Z,47.92
2023-03-05T03:15:46.480Z,50.00
2023-03-05T03:18:13.856Z,48.17
2023-03-05T03:20:41.371Z,46.25
2023-03-05T03:23:08.737Z,46.08
2023-03-05T03:25:36.274Z,45.65
2023-03-05T03:28:03.682Z,42.47
2023-03-05T03:30:31.109Z,46.10
2023-03-05T03:32:58.547Z,44.78
2023-03-05T03:35:25.959Z,44.80
2023-03-05T03:37:53.413Z,45.10
2023-03-05T03:40:20.927Z,42.95
2023-03-05T03:42:48.488Z,44.22
2023-03-05T03:45:16.054Z,41.90
2023-03-05T03:47:43.644Z,40.90
2023-03-05T03:50:11.676Z,42.90
2023-03-05T03:52:39.111Z,43.85
2023-03-05T03:55:06.908Z,39.80
2023-03-05T03:57:34.626Z,41.72
2023-03-05T04:00:02.173Z,41.33
2023-03-05T04:02:39.484Z,43.33
2023-03-05T04:05:07.651Z,41.22
2023-03-05T04:07:35.080Z,38.78
2023-03-05T04:10:02.773Z,40.17
2023-03-05T04:12:30.246Z,40.75
2023-03-05T04:14:57.763Z,40.42
2023-03-05T04:17:25.212Z,39.58
2023-03-05T04:19:52.659Z,37.88
2023-03-05T04:22:20.082Z,36.88
2023-03-05T04:24:47.557Z,36.17
2023-03-05T04:27:15.028Z,35.30
2023-03-05T04:29:42.459Z,33.42
2023-03-05T04:32:09.904Z,32.60
2023-03-05T04:34:38.187Z,32.33
2023-03-05T04:37:05.825Z,32.88
2023-03-05T04:39:33.298Z,34.63
2023-03-05T04:42:00.733Z,32.47
2023-03-05T04:44:28.191Z,32.53
2023-03-05T04:46:55.663Z,34.13
2023-03-05T04:49:23.103Z,37.20
2023-03-05T04:51:50.586Z,33.33
2023-03-05T04:54:17.966Z,35.38
2023-03-05T04:56:45.372Z,35.83
2023-03-05T04:59:13.391Z,37.45
2023-03-05T05:01:40.860Z,40.58
2023-03-05T05:04:08.589Z,42.58
2023-03-05T05:06:36.848Z,43.30
2023-03-05T05:09:04.468Z,42.17
2023-03-05T05:11:31.863Z,42.97
2023-03-05T05:13:59.317Z,41.30
2023-03-05T05:16:26.736Z,41.60
2023-03-05T05:18:54.216Z,42.13
2023-03-05T05:21:21.691Z,46.88
2023-03-05T05:23:49.168Z,42.63
2023-03-05T05:26:16.669Z,42.20
2023-03-05T05:28:44.423Z,41.90
2023-03-05T05:31:14.452Z,42.00
2023-03-05T05:33:42.539Z,43.10
2023-03-05T05:36:14.521Z,44.53
2023-03-05T05:38:42.395Z,44.83
2023-03-05T05:41:13.718Z,45.78
2023-03-05T05:43:41.413Z,44.53
2023-03-05T05:46:12.971Z,43.65
2023-03-05T05:48:40.460Z,43.38
2023-03-05T05:51:10.149Z,43.53
2023-03-05T05:53:37.823Z,43.88
2023-03-05T05:56:07.640Z,47.20
2023-03-05T05:58:36.567Z,44.03
2023-03-05T06:01:11.949Z,43.92
2023-03-05T06:03:39.443Z,43.78
2023-03-05T06:06:12.259Z,43.22
2023-03-05T06:08:39.958Z,44.38
2023-03-05T06:11:07.616Z,47.40
2023-03-05T06:13:35.257Z,45.75
2023-03-05T06:16:06.262Z,44.38
2023-03-05T06:18:35.116Z,44.50
2023-03-05T06:21:08.332Z,44.55
2023-03-05T06:23:35.917Z,42.58
2023-03-05T06:26:05.366Z,41.10
2023-03-05T06:28:33.784Z,40.92
2023-03-05T06:31:13.402Z,42.28
2023-03-05T06:33:41.651Z,39.28
2023-03-05T06:36:14.663Z,39.33
2023-03-05T06:38:42.470Z,37.42
2023-03-05T06:41:15.964Z,37.30
2023-03-05T06:43:45.622Z,38.97
2023-03-05T06:46:14.404Z,37.75
2023-03-05T06:48:43.265Z,38.28
2023-03-05T06:51:20.312Z,38.55
2023-03-05T06:53:49.579Z,38.83
2023-03-05T06:56:19.018Z,38.13
2023-03-05T06:58:48.590Z,38.22
2023-03-05T07:01:16.389Z,37.40
2023-03-05T07:03:44.238Z,38.40
2023-03-05T07:06:14.029Z,36.42
2023-03-05T07:08:42.072Z,35.38
2023-03-05T07:11:11.199Z,34.92
2023-03-05T07:13:38.642Z,35.67
2023-03-05T07:16:13.518Z,35.05
2023-03-05T07:18:40.969Z,39.28
2023-03-05T07:21:11.241Z,35.13
2023-03-05T07:23:38.723Z,35.92
2023-03-05T07:26:07.114Z,34.50
2023-03-05T07:28:35.299Z,35.42
2023-03-05T07:31:05.346Z,35.60
2023-03-05T07:33:33.785Z,36.03
2023-03-05T07:36:01.615Z,35.90
2023-03-05T07:38:29.062Z,34.65
2023-03-05T07:40:56.499Z,33.28
2023-03-05T07:43:23.977Z,33.58
2023-03-05T07:45:51.458Z,33.97
2023-03-05T07:48:22.685Z,32.85
2023-03-05T07:50:50.883Z,34.85
2023-03-05T07:53:18.283Z,32.47
2023-03-05T07:55:47.231Z,32.78
2023-03-05T07:58:14.850Z,31.95
2023-03-05T08:00:42.291Z,31.30
2023-03-05T08:03:09.781Z,32.53
2023-03-05T08:05:40.117Z,32.70
2023-03-05T08:08:08.297Z,32.25
2023-03-05T08:10:36.806Z,32.25
2023-03-05T08:13:04.761Z,34.50
2023-03-05T08:15:32.468Z,32.47
2023-03-05T08:18:00.168Z,31.98
2023-03-05T08:20:27.679Z,34.75
2023-03-05T08:22:55.067Z,32.90
2023-03-05T08:25:22.701Z,32.35
2023-03-05T08:27:50.133Z,30.75
2023-03-05T08:30:20.245Z,32.72
2023-03-05T08:32:50.098Z,43.65
2023-03-05T08:35:17.578Z,35.88
2023-03-05T08:37:44.984Z,32.92
2023-03-05T08:40:12.876Z,37.55
2023-03-05T08:42:40.275Z,39.85
2023-03-05T08:45:09.224Z,75.70
2023-03-05T08:47:36.751Z,37.40
2023-03-05T08:50:04.376Z,41.03
2023-03-05T08:52:31.711Z,40.05
2023-03-05T08:54:59.100Z,35.67
2023-03-05T08:57:26.556Z,33.17
2023-03-05T08:59:53.965Z,34.42
2023-03-05T09:02:21.375Z,36.50
2023-03-05T09:04:48.876Z,34.35
2023-03-05T09:07:16.360Z,35.45
2023-03-05T09:09:43.901Z,34.50
2023-03-05T09:12:13.351Z,34.90
2023-03-05T09:14:41.277Z,33.58
2023-03-05T09:17:09.444Z,37.30
2023-03-05T09:19:36.883Z,34.67
2023-03-05T09:22:04.448Z,35.35
2023-03-05T09:24:31.942Z,35.45
2023-03-05T09:27:00.424Z,37.47
2023-03-05T09:29:29.463Z,36.58
2023-03-05T09:31:57.155Z,37.03
2023-03-05T09:34:24.683Z,38.28
2023-03-05T09:36:52.096Z,36.15
2023-03-05T09:39:19.586Z,36.33
2023-03-05T09:42:15.927Z,38.45
2023-03-05T09:45:11.386Z,37.28
2023-03-05T09:47:48.681Z,38.17
2023-03-05T09:50:34.063Z,37.65
2023-03-05T09:53:28.640Z,39.30
2023-03-05T09:55:59.569Z,40.13
2023-03-05T09:58:42.440Z,39.20
2023-03-05T10:01:32.056Z,41.65
2023-03-05T10:04:13.178Z,41.70
2023-03-05T10:06:50.266Z,36.65
2023-03-05T10:09:37.000Z,35.92
2023-03-05T10:12:12.424Z,35.28
2023-03-05T10:14:41.329Z,34.03
2023-03-05T10:17:23.752Z,34.67
2023-03-05T10:20:22.112Z,38.28
2023-03-05T10:23:10.477Z,34.70
2023-03-05T10:26:12.539Z,36.78
2023-03-05T10:28:56.717Z,38.80
2023-03-05T10:31:56.554Z,37.35
2023-03-05T10:35:05.494Z,33.92
2023-03-05T10:38:10.042Z,33.17
2023-03-05T10:40:48.679Z,33.58
2023-03-05T10:43:38.728Z,34.15
2023-03-05T10:46:10.522Z,34.42
2023-03-05T10:48:52.325Z,32.65
2023-03-05T10:51:25.524Z,32.20
2023-03-05T10:53:58.646Z,32.42
2023-03-05T10:56:28.772Z,32.05
2023-03-05T10:58:56.193Z,30.75
2023-03-05T11:01:29.327Z,30.77
2023-03-05T11:04:05.772Z,32.08
2023-03-05T11:06:37.389Z,31.42
2023-03-05T11:09:24.457Z,32.50
2023-03-05T11:12:09.786Z,31.30
2023-03-05T11:14:40.278Z,30.90
2023-03-05T11:17:28.442Z,31.48
2023-03-05T11:19:57.489Z,30.58
2023-03-05T11:22:25.981Z,32.05
2023-03-05T11:25:12.463Z,32.20
2023-03-05T11:27:54.554Z,30.38
2023-03-05T11:30:36.151Z,33.00
2023-03-05T11:33:17.608Z,30.48
2023-03-05T11:35:45.359Z,30.70
2023-03-05T11:38:24.613Z,31.00
2023-03-05T11:40:54.999Z,28.55
2023-03-05T11:43:24.828Z,31.02
2023-03-05T11:45:57.261Z,30.85
2023-03-05T11:48:36.151Z,30.35
2023-03-05T11:51:13.713Z,32.95
2023-03-05T11:53:44.564Z,29.45
2023-03-05T11:56:24.345Z,30.02
2023-03-05T11:58:58.920Z,30.45
2023-03-05T12:01:30.620Z,32.83
2023-03-05T12:04:00.150Z,33.92
2023-03-05T12:06:38.861Z,31.50
2023-03-05T12:09:18.792Z,33.20
2023-03-05T12:11:50.314Z,31.33
2023-03-05T12:14:17.694Z,31.70
2023-03-05T12:17:12.548Z,33.63
2023-03-05T12:19:52.661Z,31.13
2023-03-05T12:22:25.316Z,31.70
2023-03-05T12:24:53.225Z,32.38
2023-03-05T12:27:35.223Z,31.65
2023-03-05T12:30:04.079Z,34.08
2023-03-05T12:32:32.355Z,32.83
2023-03-05T12:35:04.552Z,31.17
2023-03-05T12:37:31.895Z,33.80
2023-03-05T12:40:21.721Z,33.17
2023-03-05T12:43:03.601Z,32.33
2023-03-05T12:45:34.101Z,33.20
2023-03-05T12:48:01.864Z,31.60
2023-03-05T12:50:29.248Z,32.97
2023-03-05T12:53:12.473Z,31.42
2023-03-05T12:55:46.041Z,32.95
2023-03-05T12:58:33.793Z,33.45
2023-03-05T13:01:16.428Z,34.63
2023-03-05T13:03:54.450Z,34.25
2023-03-05T13:06:28.235Z,34.13
2023-03-05T13:08:58.161Z,36.30
2023-03-05T13:11:26.004Z,34.38
2023-03-05T13:13:54.125Z,33.75
2023-03-05T13:16:38.869Z,34.35
2023-03-05T13:19:16.514Z,33.95
2023-03-05T13:21:44.192Z,35.22
2023-03-05T13:24:19.477Z,35.20
2023-03-05T13:26:46.835Z,35.80
2023-03-05T13:29:30.723Z,35.72
2023-03-05T13:32:04.310Z,36.28
2023-03-05T13:34:47.753Z,35.55
2023-03-05T13:37:21.119Z,35.75
2023-03-05T13:39:56.767Z,35.78
2023-03-05T13:42:34.679Z,34.78
2023-03-05T13:45:05.532Z,34.33
2023-03-05T13:47:35.668Z,35.42
2023-03-05T13:50:09.797Z,34.88
2023-03-05T13:52:38.810Z,36.13
2023-03-05T13:55:14.725Z,34.25
2023-03-05T13:57:43.430Z,35.95
2023-03-05T14:00:32.387Z,35.42
2023-03-05T14:03:20.764Z,34.90
2023-03-05T14:05:49.937Z,33.40
2023-03-05T14:08:25.398Z,36.17
2023-03-05T14:10:59.167Z,36.47
2023-03-05T14:13:27.881Z,33.72
2023-03-05T14:16:05.932Z,35.65
2023-03-05T14:18:34.119Z,36.42
2023-03-05T14:21:11.145Z,36.80
2023-03-05T14:23:51.623Z,35.15
2023-03-05T14:26:29.344Z,36.85
2023-03-05T14:29:18.430Z,36.40
2023-03-05T14:31:59.071Z,37.47
2023-03-05T14:34:30.865Z,34.97
2023-03-05T14:37:04.257Z,34.90
2023-03-05T14:40:27.053Z,35.13
2023-03-05T14:43:04.856Z,36.72
2023-03-05T14:45:38.808Z,34.88
2023-03-05T14:48:08.128Z,37.72
2023-03-05T14:50:37.278Z,37.05
2023-03-05T14:53:14.923Z,36.83
2023-03-05T14:55:44.702Z,36.47
2023-03-05T14:58:15.481Z,36.47
2023-03-05T15:00:43.605Z,37.65
2023-03-05T15:03:13.065Z,35.55
2023-03-05T15:05:41.231Z,36.63
2023-03-05T15:08:18.307Z,37.60
2023-03-05T15:10:47.407Z,38.58
2023-03-05T15:13:15.591Z,39.08
2023-03-05T15:15:43.919Z,37.53
2023-03-05T15:18:14.061Z,33.95
2023-03-05T15:20:41.796Z,37.05
2023-03-05T15:23:09.338Z,35.53
2023-03-05T15:25:36.673Z,36.15
2023-03-05T15:28:04.109Z,36.08
2023-03-05T15:30:40.898Z,37.00
2023-03-05T15:33:11.356Z,38.08
2023-03-05T15:35:39.379Z,36.60
2023-03-05T15:38:06.765Z,36.58
2023-03-05T15:40:34.436Z,40.10
2023-03-05T15:43:02.187Z,39.10
2023-03-05T15:45:32.650Z,36.92
2023-03-05T15:48:01.062Z,37.75
2023-03-05T15:50:28.533Z,39.72
2023-03-05T15:52:55.934Z,38.05
2023-03-05T15:55:23.424Z,37.20
2023-03-05T15:57:53.184Z,39.45
2023-03-05T16:00:25.761Z,39.13
2023-03-05T16:02:53.588Z,38.08
2023-03-05T16:05:21.319Z,39.13
2023-03-05T16:07:51.797Z,38.35
2023-03-05T16:10:23.985Z,39.25
2023-03-05T16:12:55.196Z,37.72
2023-03-05T16:15:24.216Z,39.00
2023-03-05T16:17:55.175Z,38.80
2023-03-05T16:20:22.949Z,38.30
2023-03-05T16:22:50.567Z,38.50
2023-03-05T16:25:18.096Z,39.17
2023-03-05T16:27:45.694Z,39.13
2023-03-05T16:30:15.885Z,38.35
2023-03-05T16:32:43.794Z,40.17
2023-03-05T16:35:14.559Z,40.97
2023-03-05T16:37:42.418Z,38.83
2023-03-05T16:40:12.167Z,39.88
2023-03-05T16:42:39.737Z,41.47
2023-03-05T16:45:08.029Z,39.22
2023-03-05T16:47:35.806Z,39.85
2023-03-05T16:50:06.830Z,38.80
2023-03-05T16:52:34.328Z,38.42
2023-03-05T16:55:01.670Z,39.97
2023-03-05T16:57:29.223Z,39.80
2023-03-05T16:59:57.564Z,38.53
2023-03-05T17:02:24.967Z,42.42
2023-03-05T17:04:52.876Z,52.28
2023-03-05T17:07:20.300Z,64.53
2023-03-05T17:09:48.179Z,61.20
2023-03-05T17:12:17.533Z,68.05
2023-03-05T17:14:45.135Z,49.30
2023-03-05T17:17:12.545Z,72.30
2023-03-05T17:19:40.278Z,67.38
2023-03-05T17:22:07.669Z,47.30
2023-03-05T17:24:35.121Z,57.78
2023-03-05T17:27:02.439Z,53.80
2023-03-05T17:29:30.618Z,51.40
2023-03-05T17:31:58.046Z,48.92
2023-03-05T17:34:35.630Z,47.38
2023-03-05T17:37:04.822Z,49.83
2023-03-05T17:39:32.668Z,45.22
2023-03-05T17:42:00.912Z,45.63
2023-03-05T17:44:28.326Z,45.35
2023-03-05T17:46:55.912Z,44.72
2023-03-05T17:49:23.269Z,54.00
2023-03-05T17:51:51.641Z,48.72
2023-03-05T17:54:19.068Z,46.00
2023-03-05T17:56:48.032Z,50.75
2023-03-05T17:59:16.431Z,52.83
2023-03-05T18:01:43.863Z,51.95
2023-03-05T18:04:11.401Z,51.45
2023-03-05T18:06:38.919Z,53.53
2023-03-05T18:09:06.523Z,50.38
2023-03-05T18:11:34.155Z,51.08
2023-03-05T18:14:01.869Z,80.18
2023-03-05T18:16:29.864Z,114.68
2023-03-05T18:18:57.258Z,69.97
2023-03-05T18:21:27.744Z,58.47
2023-03-05T18:23:55.501Z,57.38
2023-03-05T18:26:22.891Z,53.75
2023-03-05T18:28:50.265Z,51.25
2023-03-05T18:31:17.844Z,50.25
2023-03-05T18:33:45.521Z,53.60
2023-03-05T18:36:13.969Z,54.95
2023-03-05T18:38:41.418Z,49.97
2023-03-05T18:41:08.939Z,50.50
2023-03-05T18:43:36.526Z,48.50
2023-03-05T18:46:05.050Z,49.35
2023-03-05T18:48:32.536Z,49.63
2023-03-05T18:51:01.854Z,49.17
2023-03-05T18:53:29.718Z,49.20
2023-03-05T18:55:57.106Z,51.50
2023-03-05T18:58:26.006Z,50.30
2023-03-05T19:00:53.729Z,50.45
2023-03-05T19:03:23.003Z,50.88
2023-03-05T19:05:51.279Z,51.55
2023-03-05T19:08:19.621Z,51.50
2023-03-05T19:10:47.495Z,50.42
2023-03-05T19:13:40.507Z,48.63
2023-03-05T19:16:13.033Z,51.33
2023-03-05T19:19:20.638Z,49.67
2023-03-05T19:21:59.626Z,49.35
2023-03-05T19:24:30.586Z,51.17
2023-03-05T19:27:01.048Z,50.40
2023-03-05T19:29:33.109Z,49.80
2023-03-05T19:32:01.774Z,48.10
2023-03-05T19:34:29.178Z,50.67
2023-03-05T19:36:56.581Z,48.72
2023-03-05T19:39:23.986Z,48.65
2023-03-05T19:41:51.701Z,50.80
2023-03-05T19:44:19.413Z,47.97
2023-03-05T19:46:48.525Z,46.20
2023-03-05T19:49:18.054Z,47.70
2023-03-05T19:51:46.735Z,49.55
2023-03-05T19:54:15.553Z,45.67
2023-03-05T19:56:44.262Z,46.08
2023-03-05T19:59:12.277Z,46.42
2023-03-05T20:01:39.713Z,42.80
2023-03-05T20:04:07.153Z,43.08
2023-03-05T20:06:34.809Z,42.78
2023-03-05T20:09:02.253Z,42.00
2023-03-05T20:11:29.692Z,40.67
2023-03-05T20:13:57.333Z,41.22
2023-03-05T20:16:30.266Z,39.10
2023-03-05T20:18:59.227Z,39.20
2023-03-05T20:21:39.636Z,38.55
2023-03-05T20:24:16.253Z,39.08
2023-03-05T20:26:45.014Z,38.67
2023-03-05T20:29:17.353Z,37.63
2023-03-05T20:31:45.938Z,37.70
2023-03-05T20:34:15.931Z,42.47
2023-03-05T20:36:43.618Z,35.65
2023-03-05T20:39:11.056Z,36.97
2023-03-05T20:41:39.599Z,37.72
2023-03-05T20:44:08.241Z,36.97
2023-03-05T20:46:57.634Z,35.22
2023-03-05T20:50:05.008Z,32.85
2023-03-05T20:52:32.391Z,39.45
2023-03-05T20:55:00.652Z,33.97
2023-03-05T20:57:28.049Z,36.75
2023-03-05T20:59:55.592Z,36.38
2023-03-05T21:02:23.331Z,37.47
2023-03-05T21:04:50.794Z,36.13
2023-03-05T21:07:18.303Z,34.92
2023-03-05T21:09:45.714Z,36.45
2023-03-05T21:12:13.107Z,35.42
2023-03-05T21:14:40.875Z,34.42
2023-03-05T21:17:09.643Z,36.65
2023-03-05T21:19:38.658Z,36.72
2023-03-05T21:22:06.124Z,35.17
2023-03-05T21:25:23.131Z,36.38
2023-03-05T21:28:02.214Z,32.88
2023-03-05T21:30:36.536Z,35.92
2023-03-05T21:33:11.064Z,35.15
2023-03-05T21:35:39.689Z,33.58
2023-03-05T21:38:08.881Z,36.67
2023-03-05T21:40:39.682Z,35.40
2023-03-05T21:43:07.904Z,34.17
2023-03-05T21:45:35.335Z,35.05
2023-03-05T21:48:02.852Z,36.47
2023-03-05T21:50:30.374Z,35.00
2023-03-05T21:52:57.982Z,35.47
2023-03-05T21:56:30.988Z,35.78
2023-03-05T21:58:58.528Z,34.90
2023-03-05T22:01:26.028Z,36.03
2023-03-05T22:03:53.996Z,36.63
2023-03-05T22:06:21.907Z,33.65
2023-03-05T22:08:49.372Z,40.08
2023-03-05T22:11:19.158Z,39.15
2023-03-05T22:13:46.753Z,35.58
2023-03-05T22:16:23.104Z,34.38
2023-03-05T22:18:51.124Z,34.40
2023-03-05T22:21:25.784Z,34.58
2023-03-05T22:23:54.384Z,36.35
2023-03-05T22:26:21.796Z,37.00
2023-03-05T22:28:50.159Z,37.22
2023-03-05T22:31:25.821Z,38.40
2023-03-05T22:33:53.968Z,37.15
2023-03-05T22:36:21.388Z,38.58
2023-03-05T22:38:48.905Z,35.90
2023-03-05T22:41:19.806Z,36.47
2023-03-05T22:43:48.460Z,34.70
2023-03-05T22:46:24.256Z,36.42
2023-03-05T22:48:52.585Z,36.75
2023-03-05T22:51:20.718Z,37.75
2023-03-05T22:53:48.210Z,37.72
2023-03-05T22:56:21.459Z,37.75
2023-03-05T22:58:49.055Z,40.65
2023-03-05T23:01:25.461Z,39.95
2023-03-05T23:04:54.796Z,39.47
2023-03-05T23:07:25.466Z,38.38
2023-03-05T23:09:58.099Z,38.08
2023-03-05T23:12:27.747Z,37.08
2023-03-05T23:14:55.386Z,38.42
2023-03-05T23:17:22.799Z,40.38
2023-03-05T23:19:50.194Z,38.95
2023-03-05T23:22:17.642Z,37.83
2023-03-05T23:24:45.126Z,39.25
2023-03-05T23:27:15.976Z,40.50
2023-03-05T23:30:43.141Z,37.35
2023-03-05T23:33:24.104Z,39.58
2023-03-05T23:36:00.065Z,38.08
2023-03-05T23:38:30.490Z,37.83
2023-03-05T23:41:01.415Z,37.33
2023-03-05T23:43:29.426Z,39.72
2023-03-05T23:45:57.203Z,39.45
2023-03-05T23:48:26.532Z,39.58
2023-03-05T23:50:54.469Z,39.00
2023-03-05T23:53:25.423Z,39.05
2023-03-05T23:55:53.086Z,40.15
2023-03-05T23:58:20.560Z,43.67
